createdAt,value
2022-11-16T00:01:47.081Z,988.3
2022-11-16T00:04:15.238Z,988.3
2022-11-16T00:06:43.530Z,988.4
2022-11-16T00:09:48.807Z,988.3
2022-11-16T00:12:17.074Z,988.2
2022-11-16T00:14:45.328Z,988.3
2022-11-16T00:17:13.567Z,988.2
2022-11-16T00:20:18.864Z,988.2
2022-11-16T00:22:47.114Z,988.1
2022-11-16T00:25:15.406Z,988.1
2022-11-16T00:27:43.603Z,988.1
2022-11-16T00:30:11.839Z,988
2022-11-16T00:33:17.185Z,988
2022-11-16T00:35:45.450Z,988
2022-11-16T00:38:13.701Z,988
2022-11-16T00:41:10.758Z,988
2022-11-16T00:44:16.082Z,988
2022-11-16T00:46:44.341Z,987.9
2022-11-16T00:49:12.579Z,987.9
2022-11-16T00:52:17.900Z,987.9
2022-11-16T00:54:46.126Z,987.9
2022-11-16T00:57:14.360Z,987.9
2022-11-16T00:59:43.039Z,987.9
2022-11-16T01:02:10.855Z,987.9
2022-11-16T01:05:16.161Z,987.9
2022-11-16T01:07:44.439Z,988.3
2022-11-16T01:10:49.745Z,988
2022-11-16T01:13:18.013Z,988
2022-11-16T01:15:46.235Z,987.9
2022-11-16T01:18:14.478Z,987.9
2022-11-16T01:21:19.779Z,987.9
2022-11-16T01:23:48.046Z,987.8
2022-11-16T01:26:16.280Z,987.8
2022-11-16T01:28:44.513Z,987.9
2022-11-16T01:31:12.790Z,987.9
2022-11-16T01:34:55.194Z,987.9
2022-11-16T01:38:00.489Z,987.8
2022-11-16T01:40:28.711Z,987.9
2022-11-16T01:42:48.779Z,987.8
2022-11-16T01:45:16.996Z,987.8
2022-11-16T01:47:45.275Z,987.9
2022-11-16T01:50:13.513Z,987.9
2022-11-16T01:53:18.802Z,987.8
2022-11-16T01:55:47.055Z,987.8
2022-11-16T01:58:15.311Z,987.9
2022-11-16T02:00:43.568Z,987.9
2022-11-16T02:03:11.795Z,987.8
2022-11-16T02:06:17.094Z,987.8
2022-11-16T02:08:45.356Z,987.8
2022-11-16T02:11:13.641Z,987.8
2022-11-16T02:14:18.937Z,987.9
2022-11-16T02:16:47.191Z,987.9
2022-11-16T02:19:15.454Z,987.9
2022-11-16T02:21:43.682Z,987.9
2022-11-16T02:24:11.885Z,987.9
2022-11-16T02:27:17.209Z,987.9
2022-11-16T02:29:45.500Z,987.9
2022-11-16T02:32:13.747Z,987.8
2022-11-16T02:35:19.030Z,987.7
2022-11-16T02:37:47.275Z,987.7
2022-11-16T02:40:15.495Z,987.7
2022-11-16T02:42:35.572Z,987.7
2022-11-16T02:45:03.840Z,987.7
2022-11-16T02:48:09.140Z,987.6
2022-11-16T02:51:14.448Z,987.6
2022-11-16T02:53:42.704Z,987.5
2022-11-16T02:56:10.922Z,987.5
2022-11-16T02:59:17.723Z,987.4
2022-11-16T03:01:44.486Z,987.9
2022-11-16T03:04:12.780Z,987.3
2022-11-16T03:07:55.139Z,987.4
2022-11-16T03:11:00.425Z,987.5
2022-11-16T03:14:05.733Z,987.5
2022-11-16T03:17:11.049Z,987.5
2022-11-16T03:20:16.343Z,987.7
2022-11-16T03:22:44.593Z,987.7
2022-11-16T03:25:12.840Z,987.8
2022-11-16T03:28:18.165Z,987.8
2022-11-16T03:30:46.424Z,987.7
2022-11-16T03:33:14.620Z,987.7
2022-11-16T03:35:42.931Z,987.6
2022-11-16T03:38:11.657Z,987.6
2022-11-16T03:40:39.388Z,987.6
2022-11-16T03:42:59.456Z,987.6
2022-11-16T03:46:04.789Z,987.4
2022-11-16T03:49:10.122Z,987.7
2022-11-16T03:52:15.392Z,987.5
2022-11-16T03:54:43.593Z,987.4
2022-11-16T03:57:11.941Z,987.8
2022-11-16T04:00:17.168Z,987.8
2022-11-16T04:02:45.421Z,987.8
2022-11-16T04:05:13.636Z,987.9
2022-11-16T04:08:19.009Z,987.9
2022-11-16T04:10:47.207Z,987.9
2022-11-16T04:13:15.462Z,987.9
2022-11-16T04:15:43.697Z,987.9
2022-11-16T04:18:11.984Z,987.9
2022-11-16T04:21:17.255Z,987.9
2022-11-16T04:23:45.511Z,988
2022-11-16T04:26:13.793Z,987.9
2022-11-16T04:29:19.100Z,987.9
2022-11-16T04:31:47.323Z,987.9
2022-11-16T04:34:15.553Z,988
2022-11-16T04:36:43.829Z,988
2022-11-16T04:39:12.066Z,988.1
2022-11-16T04:42:17.393Z,988.1
2022-11-16T04:44:37.510Z,988.1
2022-11-16T04:47:05.704Z,988.1
2022-11-16T04:50:10.959Z,988
2022-11-16T04:53:16.304Z,988
2022-11-16T04:55:44.547Z,988.1
2022-11-16T04:58:12.809Z,988.1
2022-11-16T05:01:55.211Z,988.1
2022-11-16T05:05:00.459Z,988
2022-11-16T05:08:05.781Z,988
2022-11-16T05:11:11.076Z,988
2022-11-16T05:14:16.431Z,988.1
2022-11-16T05:16:44.667Z,988.1
2022-11-16T05:19:12.912Z,988
2022-11-16T05:22:18.229Z,988.1
2022-11-16T05:24:46.492Z,988
2022-11-16T05:27:14.716Z,988.1
2022-11-16T05:29:42.962Z,988.1
2022-11-16T05:32:11.186Z,988.1
2022-11-16T05:35:16.497Z,988.1
2022-11-16T05:37:44.744Z,988.1
2022-11-16T05:40:13.021Z,988
2022-11-16T05:42:33.104Z,988
2022-11-16T05:45:01.293Z,988.1
2022-11-16T05:48:06.622Z,988.1
2022-11-16T05:51:11.917Z,988
2022-11-16T05:54:17.279Z,988.1
2022-11-16T05:56:45.497Z,988.1
2022-11-16T05:59:16.402Z,988.1
2022-11-16T06:02:19.050Z,988.1
2022-11-16T06:04:47.322Z,988.1
2022-11-16T06:07:15.598Z,988.1
2022-11-16T06:09:43.788Z,988.1
2022-11-16T06:12:12.031Z,988.2
2022-11-16T06:15:17.372Z,988.2
2022-11-16T06:17:45.628Z,988.2
2022-11-16T06:20:13.835Z,988.3
2022-11-16T06:23:20.214Z,988.2
2022-11-16T06:25:47.385Z,988.2
2022-11-16T06:28:15.632Z,988.3
2022-11-16T06:30:43.899Z,988.2
2022-11-16T06:33:12.159Z,988.4
2022-11-16T06:36:17.468Z,988.5
2022-11-16T06:38:45.694Z,988.5
2022-11-16T06:41:13.924Z,988.5
2022-11-16T06:44:11.060Z,988.6
2022-11-16T06:47:16.375Z,988.6
2022-11-16T06:49:44.585Z,988.6
2022-11-16T06:52:12.881Z,988.5
2022-11-16T06:55:18.249Z,988.5
2022-11-16T06:57:46.438Z,988.6
2022-11-16T07:00:14.654Z,988.6
2022-11-16T07:03:20.107Z,988.6
2022-11-16T07:05:48.262Z,988.6
2022-11-16T07:08:16.509Z,988.6
2022-11-16T07:10:44.711Z,988.6
2022-11-16T07:13:12.978Z,988.7
2022-11-16T07:16:18.285Z,988.7
2022-11-16T07:18:46.547Z,988.7
2022-11-16T07:21:14.773Z,988.7
2022-11-16T07:23:43.016Z,988.8
2022-11-16T07:26:11.302Z,988.8
2022-11-16T07:29:16.608Z,988.8
2022-11-16T07:31:44.892Z,988.8
2022-11-16T07:34:13.061Z,988.9
2022-11-16T07:37:55.478Z,988.9
2022-11-16T07:41:00.757Z,989.1
2022-11-16T07:50:37.377Z,989.2
2022-11-16T08:06:41.033Z,989.3
2022-11-16T08:12:14.514Z,989.4
2022-11-16T08:15:19.853Z,989.5
2022-11-16T08:17:48.114Z,989.5
2022-11-16T08:20:16.360Z,989.5
2022-11-16T08:25:12.850Z,989.4
2022-11-16T08:27:41.073Z,989.5
2022-11-16T08:32:37.601Z,989.5
2022-11-16T08:37:34.114Z,989.4
2022-11-16T08:40:02.356Z,989.4
2022-11-16T08:43:07.645Z,989.4
2022-11-16T08:46:49.992Z,989.4
2022-11-16T08:53:37.712Z,989.5
2022-11-16T08:58:34.564Z,989.6
2022-11-16T09:02:16.634Z,989.6
2022-11-16T09:04:37.283Z,989.6
2022-11-16T09:07:04.928Z,989.5
2022-11-16T09:10:10.158Z,989.5
2022-11-16T09:13:15.500Z,989.5
2022-11-16T09:16:20.895Z,989.4
2022-11-16T09:18:49.046Z,989.5
2022-11-16T09:21:17.290Z,989.4
2022-11-16T09:23:45.602Z,989.4
2022-11-16T09:26:13.823Z,989.5
2022-11-16T09:29:19.088Z,989.5
2022-11-16T09:31:47.380Z,989.6
2022-11-16T09:34:15.559Z,989.6
2022-11-16T09:36:43.828Z,989.6
2022-11-16T09:41:40.285Z,989.6
2022-11-16T09:46:36.851Z,989.7
2022-11-16T09:50:56.277Z,989.6
2022-11-16T09:54:01.580Z,989.7
2022-11-16T09:57:11.055Z,989.6
2022-11-16T10:00:49.259Z,989.6
2022-11-16T10:04:31.598Z,989.5
2022-11-16T10:10:42.219Z,989.5
2022-11-16T10:14:24.579Z,989.5
2022-11-16T10:16:44.682Z,989.5
2022-11-16T10:19:12.908Z,989.4
2022-11-16T10:26:37.648Z,989.4
2022-11-16T10:31:34.145Z,989.4
2022-11-16T10:35:16.517Z,989.5
2022-11-16T10:37:44.726Z,989.4
2022-11-16T10:40:12.997Z,989.3
2022-11-16T10:42:41.270Z,989.3
2022-11-16T10:45:09.479Z,989.3
2022-11-16T10:48:14.783Z,989.2
2022-11-16T10:51:57.187Z,989.2
2022-11-16T10:55:39.554Z,989.1
2022-11-16T11:00:36.091Z,989.1
2022-11-16T11:04:55.489Z,989.1
2022-11-16T11:09:35.640Z,988.8
2022-11-16T11:13:17.963Z,989
2022-11-16T11:15:46.178Z,989
2022-11-16T11:18:14.429Z,988.9
2022-11-16T11:21:19.790Z,988.9
2022-11-16T11:23:48.040Z,988.9
2022-11-16T11:26:16.241Z,988.8
2022-11-16T11:29:58.697Z,988.8
2022-11-16T11:33:04.054Z,988.8
2022-11-16T11:38:37.480Z,988.7
2022-11-16T11:44:11.080Z,988.7
2022-11-16T11:49:07.533Z,988.7
2022-11-16T11:52:12.868Z,988.7
2022-11-16T11:54:45.616Z,988.7
2022-11-16T11:59:00.523Z,988.7
2022-11-16T12:02:05.830Z,988.6
2022-11-16T12:05:02.968Z,988.5
2022-11-16T12:08:45.309Z,988.4
2022-11-16T12:11:13.587Z,988.4
2022-11-16T12:13:41.841Z,988.4
2022-11-16T12:18:38.321Z,988.4
2022-11-16T12:23:35.153Z,988.4
2022-11-16T12:26:03.108Z,988.4
2022-11-16T12:29:08.410Z,988.5
2022-11-16T12:32:13.692Z,988.4
2022-11-16T12:36:33.141Z,988.3
2022-11-16T12:41:29.628Z,988.3
2022-11-16T12:48:17.298Z,988.1
2022-11-16T12:50:45.558Z,988.1
2022-11-16T12:53:13.786Z,988.1
2022-11-16T12:56:19.121Z,988
2022-11-16T12:58:47.355Z,988
2022-11-16T13:01:15.643Z,988
2022-11-16T13:03:43.849Z,988
2022-11-16T13:06:03.886Z,987.9
2022-11-16T13:09:09.224Z,987.9
2022-11-16T13:11:37.444Z,987.9
2022-11-16T13:16:33.943Z,988
2022-11-16T13:22:44.555Z,988
2022-11-16T13:29:32.259Z,988
2022-11-16T13:34:28.756Z,988
2022-11-16T13:38:11.128Z,987.9
2022-11-16T13:41:16.410Z,987.9
2022-11-16T13:43:44.705Z,987.9
2022-11-16T13:46:22.469Z,987.9
2022-11-16T13:49:18.283Z,987.9
2022-11-16T13:56:05.895Z,987.8
2022-11-16T13:59:11.252Z,987.8
2022-11-16T14:02:16.542Z,987.8
2022-11-16T14:05:50.710Z,987.7
2022-11-16T14:08:18.996Z,987.7
2022-11-16T14:10:47.218Z,987.7
2022-11-16T14:17:34.881Z,987.6
2022-11-16T14:22:31.401Z,987.6
2022-11-16T14:26:50.810Z,987.6
2022-11-16T14:29:19.096Z,987.7
2022-11-16T14:31:47.304Z,987.7
2022-11-16T14:34:15.553Z,987.7
2022-11-16T14:36:43.830Z,987.7
2022-11-16T14:39:12.064Z,987.7
2022-11-16T14:42:17.356Z,987.6
2022-11-16T14:44:45.599Z,987.6
2022-11-16T14:47:13.852Z,987.6
2022-11-16T14:50:39.679Z,987.6
2022-11-16T14:52:47.412Z,987.6
2022-11-16T14:55:15.663Z,987.5
2022-11-16T14:57:43.907Z,987.5
2022-11-16T15:00:12.188Z,987.5
2022-11-16T15:03:17.529Z,987.5
2022-11-16T15:06:14.624Z,987.5
2022-11-16T15:09:19.919Z,987.5
2022-11-16T15:11:48.157Z,987.5
2022-11-16T15:14:16.383Z,987.4
2022-11-16T15:16:44.661Z,987.4
2022-11-16T15:19:12.896Z,987.3
2022-11-16T15:22:55.290Z,987.3
2022-11-16T15:26:00.569Z,987.4
2022-11-16T15:29:05.908Z,987.4
2022-11-16T15:32:11.207Z,987.3
2022-11-16T15:35:16.516Z,987.2
2022-11-16T15:37:44.768Z,987.2
2022-11-16T15:40:12.999Z,987.2
2022-11-16T15:43:18.361Z,987.2
2022-11-16T15:45:46.533Z,987.2
2022-11-16T15:48:14.839Z,987.2
2022-11-16T15:50:43.053Z,987.1
2022-11-16T15:53:11.298Z,987
2022-11-16T15:56:16.600Z,986.9
2022-11-16T15:58:44.886Z,987
2022-11-16T16:01:13.127Z,987
2022-11-16T16:04:18.430Z,987
2022-11-16T16:07:15.619Z,986.9
2022-11-16T16:09:43.777Z,986.9
2022-11-16T16:12:12.035Z,987
2022-11-16T16:15:17.330Z,987
2022-11-16T16:17:45.619Z,986.9
2022-11-16T16:20:13.819Z,986.8
2022-11-16T16:23:19.141Z,986.7
2022-11-16T16:25:50.444Z,986.8
2022-11-16T16:28:15.649Z,986.8
2022-11-16T16:30:43.917Z,986.8
2022-11-16T16:33:12.179Z,986.8
2022-11-16T16:36:17.448Z,986.7
2022-11-16T16:38:45.697Z,986.8
2022-11-16T16:41:13.927Z,986.8
2022-11-16T16:44:19.268Z,986.8
2022-11-16T16:46:47.504Z,986.8
2022-11-16T16:49:52.777Z,986.7
2022-11-16T16:52:58.133Z,986.7
2022-11-16T16:56:03.433Z,986.7
2022-11-16T16:59:45.880Z,986.7
2022-11-16T17:10:36.529Z,986.6
2022-11-16T17:13:04.773Z,986.7
2022-11-16T17:16:10.075Z,986.7
2022-11-16T17:19:15.420Z,986.6
2022-11-16T17:21:43.638Z,987.3
2022-11-16T17:24:48.960Z,986.6
2022-11-16T17:29:08.358Z,986.6
2022-11-16T17:34:41.990Z,986.4
2022-11-16T17:40:15.535Z,986.4
2022-11-16T17:42:43.744Z,986.4
2022-11-16T17:45:12.005Z,986.4
2022-11-16T17:48:17.279Z,986.3
2022-11-16T17:50:45.560Z,986.3
2022-11-16T17:53:13.817Z,986.3
2022-11-16T17:56:19.151Z,986.2
2022-11-16T17:58:47.333Z,986.2
2022-11-16T18:01:15.611Z,986.1
2022-11-16T18:03:43.856Z,986.1
2022-11-16T18:06:12.133Z,986.1
2022-11-16T18:09:13.331Z,986
2022-11-16T18:12:18.601Z,986
2022-11-16T18:15:00.112Z,986
2022-11-16T18:17:15.110Z,986
2022-11-16T18:19:43.376Z,986
2022-11-16T18:22:11.606Z,986
2022-11-16T18:25:16.926Z,985.9
2022-11-16T18:28:59.357Z,985.9
2022-11-16T18:32:04.589Z,985.9
2022-11-16T18:37:46.778Z,985.9
2022-11-16T18:40:15.080Z,985.9
2022-11-16T18:42:51.506Z,985.8
2022-11-16T18:46:42.100Z,985.9
2022-11-16T18:49:10.339Z,985.8
2022-11-16T18:53:00.937Z,985.9
2022-11-16T18:55:29.271Z,985.9
2022-11-16T18:57:57.469Z,985.8
2022-11-16T19:00:25.742Z,985.8
2022-11-16T19:02:54.012Z,985.8
2022-11-16T19:05:22.253Z,985.8
2022-11-16T19:07:50.528Z,985.9
2022-11-16T19:10:18.818Z,985.9
2022-11-16T19:12:47.089Z,985.9
2022-11-16T19:15:15.332Z,985.9
2022-11-16T19:25:08.422Z,985.8
2022-11-16T19:37:20.141Z,985.7
2022-11-16T19:41:12.105Z,985.8
2022-11-16T19:46:16.848Z,985.7
2022-11-16T19:56:18.210Z,985.4
2022-11-16T20:00:08.760Z,985.3
2022-11-16T20:06:19.374Z,985.4
2022-11-16T20:16:20.610Z,985.2
2022-11-16T20:21:08.983Z,985.4
2022-11-16T20:26:13.702Z,985.4
2022-11-16T20:31:10.238Z,985.2
2022-11-16T20:36:06.764Z,985.2
2022-11-16T20:42:17.435Z,985.2
2022-11-16T20:47:13.962Z,985.1
2022-11-16T20:52:18.711Z,985
2022-11-16T20:57:23.390Z,985
2022-11-16T21:01:14.093Z,985
2022-11-16T21:06:10.557Z,984.9
2022-11-16T21:17:17.752Z,984.8
2022-11-16T21:22:14.284Z,984.7
2022-11-16T21:25:40.275Z,984.7
2022-11-16T21:28:08.578Z,984.7
2022-11-16T21:31:50.947Z,984.6
2022-11-16T21:34:19.321Z,984.6
2022-11-16T21:36:55.686Z,984.6
2022-11-16T21:39:23.938Z,984.6
2022-11-16T21:41:52.222Z,984.6
2022-11-16T21:44:20.461Z,984.6
2022-11-16T21:46:48.773Z,984.6
2022-11-16T21:49:25.201Z,984.5
2022-11-16T21:59:18.303Z,984.4
2022-11-16T22:04:14.814Z,984.3
2022-11-16T22:09:11.327Z,984.3
2022-11-16T22:15:30.209Z,984.4
2022-11-16T22:17:58.482Z,984.3
2022-11-16T22:21:40.844Z,984.3
2022-11-16T22:25:31.446Z,984.3
2022-11-16T22:28:19.530Z,984.3
2022-11-16T22:31:42.119Z,984.3
2022-11-16T22:35:32.710Z,984.2
2022-11-16T22:38:00.954Z,984.2
2022-11-16T22:40:29.251Z,984.2
2022-11-16T22:42:57.519Z,984.1
2022-11-16T22:45:25.780Z,984.1
2022-11-16T22:47:54.975Z,984.1
2022-11-16T22:51:36.440Z,984.1
2022-11-16T22:56:16.585Z,984
2022-11-16T23:00:07.164Z,983.9
2022-11-16T23:11:14.381Z,983.8
2022-11-16T23:16:10.907Z,983.7
2022-11-16T23:21:07.468Z,983.6
2022-11-16T23:27:26.305Z,983.4
2022-11-16T23:31:08.749Z,983.4
2022-11-16T23:36:13.412Z,983.2
2022-11-16T23:41:09.992Z,983.1
2022-11-16T23:46:06.536Z,983.1
2022-11-16T23:52:17.181Z,983
2022-11-16T23:56:04.364Z,982.9
